createdAt,value
2022-09-07T00:02:20.582Z,25.17
2022-09-07T00:04:48.546Z,25.01
2022-09-07T00:07:15.256Z,24.90
2022-09-07T00:09:41.859Z,24.77
2022-09-07T00:12:08.362Z,24.68
2022-09-07T00:14:36.537Z,24.64
2022-09-07T00:17:03.085Z,24.61
2022-09-07T00:19:29.643Z,24.56
2022-09-07T00:21:56.392Z,24.55
2022-09-07T00:24:24.529Z,24.51
2022-09-07T00:26:51.029Z,24.45
2022-09-07T00:29:17.548Z,24.43
2022-09-07T00:31:44.149Z,24.39
2022-09-07T00:34:15.099Z,24.33
2022-09-07T00:36:41.622Z,24.31
2022-09-07T00:39:08.475Z,24.27
2022-09-07T00:41:35.012Z,24.24
2022-09-07T00:44:40.226Z,24.23
2022-09-07T00:47:12.813Z,24.22
2022-09-07T00:49:40.691Z,24.18
2022-09-07T00:52:08.939Z,24.16
2022-09-07T00:54:50.484Z,24.11
2022-09-07T00:57:17.351Z,24.04
2022-09-07T00:59:48.190Z,23.95
2022-09-07T01:02:17.321Z,23.89
2022-09-07T01:04:51.903Z,23.82
2022-09-07T01:07:19.085Z,23.76
2022-09-07T01:09:47.254Z,23.69
2022-09-07T01:12:13.952Z,23.62
2022-09-07T01:14:50.170Z,23.51
2022-09-07T01:17:17.053Z,23.43
2022-09-07T01:20:07.925Z,23.32
2022-09-07T01:22:53.281Z,23.26
2022-09-07T01:25:50.269Z,23.24
2022-09-07T01:28:27.236Z,23.22
2022-09-07T01:31:41.639Z,23.15
2022-09-07T01:34:23.254Z,23.12
2022-09-07T01:37:03.984Z,23.12
2022-09-07T01:39:39.661Z,23.14
2022-09-07T01:42:13.242Z,23.16
2022-09-07T01:44:49.975Z,23.14
2022-09-07T01:47:27.467Z,23.10
2022-09-07T01:50:16.255Z,23.05
2022-09-07T01:56:35.475Z,23.01
2022-09-07T01:59:06.506Z,22.99
2022-09-07T02:01:49.436Z,22.97
2022-09-07T02:04:21.708Z,22.95
2022-09-07T02:06:51.213Z,22.93
2022-09-07T02:09:29.180Z,22.90
2022-09-07T02:11:55.840Z,22.87
2022-09-07T02:14:37.515Z,22.83
2022-09-07T02:17:14.845Z,22.82
2022-09-07T02:19:46.756Z,22.79
2022-09-07T02:22:16.577Z,22.78
2022-09-07T02:24:50.240Z,22.77
2022-09-07T02:27:21.624Z,22.74
2022-09-07T02:29:48.638Z,22.73
2022-09-07T02:32:15.398Z,22.72
2022-09-07T02:34:43.577Z,22.73
2022-09-07T02:37:12.490Z,22.75
2022-09-07T02:39:39.392Z,22.74
2022-09-07T02:42:06.066Z,22.76
2022-09-07T02:44:40.474Z,22.79
2022-09-07T02:47:12.986Z,22.82
2022-09-07T02:50:04.978Z,22.81
2022-09-07T02:52:47.096Z,22.81
2022-09-07T02:55:51.237Z,22.80
2022-09-07T02:58:43.766Z,22.78
2022-09-07T03:01:24.728Z,22.72
2022-09-07T03:04:14.678Z,22.72
2022-09-07T03:06:48.150Z,22.72
2022-09-07T03:09:26.245Z,22.74
2022-09-07T03:11:52.974Z,22.77
2022-09-07T03:14:45.627Z,22.76
2022-09-07T03:17:13.176Z,22.78
2022-09-07T03:19:39.928Z,22.80
2022-09-07T03:22:06.625Z,22.80
2022-09-07T03:24:34.604Z,22.81
2022-09-07T03:27:01.140Z,22.80
2022-09-07T03:29:27.757Z,22.79
2022-09-07T03:31:54.237Z,22.77
2022-09-07T03:34:23.912Z,22.75
2022-09-07T03:36:50.482Z,22.73
2022-09-07T03:39:20.782Z,22.73
2022-09-07T03:41:47.771Z,22.74
2022-09-07T03:44:39.181Z,22.73
2022-09-07T03:47:05.928Z,22.71
2022-09-07T03:49:32.462Z,22.70
2022-09-07T03:51:58.985Z,22.69
2022-09-07T03:54:25.588Z,22.63
2022-09-07T03:56:52.409Z,22.63
2022-09-07T03:59:18.929Z,22.63
2022-09-07T04:01:45.753Z,22.64
2022-09-07T04:04:13.198Z,22.63
2022-09-07T04:06:39.817Z,22.63
2022-09-07T04:09:10.622Z,22.61
2022-09-07T04:11:37.975Z,22.59
2022-09-07T04:14:09.869Z,22.60
2022-09-07T04:16:36.777Z,22.59
2022-09-07T04:19:04.102Z,22.57
2022-09-07T04:21:32.601Z,22.57
2022-09-07T04:24:03.521Z,22.57
2022-09-07T04:26:32.933Z,22.54
2022-09-07T04:29:01.182Z,22.50
2022-09-07T04:31:27.843Z,22.49
2022-09-07T04:33:56.155Z,22.49
2022-09-07T04:36:24.756Z,22.47
2022-09-07T04:38:56.746Z,22.48
2022-09-07T04:41:24.062Z,22.47
2022-09-07T04:43:54.704Z,22.48
2022-09-07T04:46:27.364Z,22.45
2022-09-07T04:48:58.607Z,22.48
2022-09-07T04:51:27.755Z,22.50
2022-09-07T04:54:00.752Z,22.54
2022-09-07T04:56:27.905Z,22.57
2022-09-07T04:58:54.752Z,22.60
2022-09-07T05:01:24.251Z,22.62
2022-09-07T05:03:54.734Z,22.60
2022-09-07T05:06:22.514Z,22.59
2022-09-07T05:08:51.213Z,22.57
2022-09-07T05:11:18.947Z,22.54
2022-09-07T05:13:47.263Z,22.52
2022-09-07T05:16:16.952Z,22.51
2022-09-07T05:18:44.231Z,22.54
2022-09-07T05:21:23.000Z,22.54
2022-09-07T05:23:56.342Z,22.54
2022-09-07T05:26:24.644Z,22.55
2022-09-07T05:28:51.434Z,22.55
2022-09-07T05:31:20.718Z,22.56
2022-09-07T05:36:39.467Z,22.58
2022-09-07T05:39:06.953Z,22.58
2022-09-07T05:41:33.441Z,22.56
2022-09-07T05:46:48.660Z,22.41
2022-09-07T05:49:15.138Z,22.35
2022-09-07T05:51:41.646Z,22.33
2022-09-07T05:54:11.088Z,22.37
2022-09-07T05:56:37.831Z,22.36
2022-09-07T05:59:04.788Z,22.37
2022-09-07T06:01:31.682Z,22.41
2022-09-07T06:04:00.379Z,22.48
2022-09-07T06:06:27.100Z,22.53
2022-09-07T06:08:54.509Z,22.58
2022-09-07T06:11:26.404Z,22.62
2022-09-07T06:13:54.481Z,22.63
2022-09-07T06:16:21.283Z,22.60
2022-09-07T06:18:49.757Z,22.59
2022-09-07T06:21:18.984Z,22.59
2022-09-07T06:23:48.622Z,22.63
2022-09-07T06:26:16.612Z,22.68
2022-09-07T06:28:48.942Z,22.73
2022-09-07T06:31:19.414Z,22.79
2022-09-07T06:33:49.880Z,22.83
2022-09-07T06:36:20.753Z,22.87
2022-09-07T06:38:48.472Z,22.90
2022-09-07T06:44:09.159Z,22.95
2022-09-07T06:49:23.643Z,23.07
2022-09-07T06:51:50.476Z,23.15
2022-09-07T06:57:08.670Z,23.12
2022-09-07T06:59:35.496Z,23.18
2022-09-07T07:02:02.232Z,23.25
2022-09-07T07:04:34.106Z,23.27
2022-09-07T07:07:03.015Z,23.33
2022-09-07T07:09:29.583Z,23.39
2022-09-07T07:11:56.053Z,23.38
2022-09-07T07:14:22.639Z,23.35
2022-09-07T07:16:49.240Z,23.33
2022-09-07T07:19:16.177Z,23.39
2022-09-07T07:22:07.770Z,23.48
2022-09-07T07:24:30.190Z,23.60
2022-09-07T07:26:56.945Z,23.69
2022-09-07T07:29:26.220Z,23.70
2022-09-07T07:31:54.711Z,23.72
2022-09-07T07:34:41.579Z,23.74
2022-09-07T07:37:08.025Z,23.77
2022-09-07T07:42:21.402Z,23.99
2022-09-07T07:47:38.665Z,24.30
2022-09-07T07:55:43.243Z,24.86
2022-09-07T07:58:10.174Z,24.94
2022-09-07T08:00:52.929Z,25.00
2022-09-07T08:03:25.547Z,25.06
2022-09-07T08:05:52.629Z,25.08
2022-09-07T08:08:19.582Z,25.08
2022-09-07T08:10:47.863Z,25.12
2022-09-07T08:15:59.293Z,25.16
2022-09-07T08:18:26.625Z,25.17
2022-09-07T08:20:53.147Z,25.22
2022-09-07T08:23:21.073Z,25.26
2022-09-07T08:25:54.676Z,25.38
2022-09-07T08:28:23.372Z,25.50
2022-09-07T08:30:50.134Z,25.58
2022-09-07T08:33:39.587Z,25.65
2022-09-07T08:36:09.197Z,25.73
2022-09-07T08:38:36.712Z,25.78
2022-09-07T08:41:23.041Z,25.85
2022-09-07T08:44:04.043Z,25.90
2022-09-07T08:46:40.589Z,25.93
2022-09-07T08:49:17.251Z,26.00
2022-09-07T08:51:49.900Z,26.07
2022-09-07T08:54:17.522Z,26.11
2022-09-07T08:59:47.000Z,26.29
2022-09-07T09:02:35.138Z,26.40
2022-09-07T09:05:22.570Z,26.46
2022-09-07T09:07:58.289Z,26.54
2022-09-07T09:10:27.428Z,26.61
2022-09-07T09:13:31.205Z,26.65
2022-09-07T09:16:10.601Z,26.64
2022-09-07T09:18:46.743Z,26.65
2022-09-07T09:21:18.704Z,26.65
2022-09-07T09:23:51.340Z,26.67
2022-09-07T09:26:24.947Z,26.71
2022-09-07T09:28:51.867Z,26.77
2022-09-07T09:31:19.699Z,26.88
2022-09-07T09:34:05.200Z,27.03
2022-09-07T09:36:34.269Z,27.19
2022-09-07T09:39:01.262Z,27.34
2022-09-07T09:41:37.140Z,27.39
2022-09-07T09:44:04.043Z,27.44
2022-09-07T09:46:34.105Z,27.51
2022-09-07T09:49:12.636Z,27.54
2022-09-07T09:54:43.531Z,27.74
2022-09-07T09:57:16.530Z,27.80
2022-09-07T10:00:02.689Z,27.80
2022-09-07T10:05:35.559Z,27.87
2022-09-07T10:08:02.751Z,27.95
2022-09-07T10:10:31.363Z,28.00
2022-09-07T10:12:58.463Z,28.02
2022-09-07T10:15:40.048Z,28.09
2022-09-07T10:18:18.557Z,28.15
2022-09-07T10:20:45.138Z,28.22
2022-09-07T10:23:34.210Z,28.29
2022-09-07T10:26:20.931Z,28.38
2022-09-07T10:31:40.873Z,28.53
2022-09-07T10:34:28.993Z,28.60
2022-09-07T10:37:06.813Z,28.77
2022-09-07T10:39:41.540Z,28.90
2022-09-07T10:42:33.003Z,28.95
2022-09-07T10:45:08.541Z,28.99
2022-09-07T10:47:44.504Z,29.03
2022-09-07T10:50:31.830Z,29.11
2022-09-07T10:53:37.061Z,29.21
2022-09-07T10:56:25.689Z,29.29
2022-09-07T10:59:08.306Z,29.31
2022-09-07T11:01:48.426Z,29.38
2022-09-07T11:04:51.842Z,29.54
2022-09-07T11:07:59.886Z,29.79
2022-09-07T11:10:53.982Z,29.95
2022-09-07T11:13:31.539Z,30.07
2022-09-07T11:16:01.803Z,30.17
2022-09-07T11:21:56.548Z,30.35
2022-09-07T11:27:52.965Z,30.44
2022-09-07T11:30:23.810Z,30.42
2022-09-07T11:32:53.467Z,30.41
2022-09-07T11:35:35.154Z,30.47
2022-09-07T11:38:12.800Z,30.59
2022-09-07T11:40:50.598Z,30.79
2022-09-07T11:43:41.339Z,30.99
2022-09-07T11:46:16.410Z,31.14
2022-09-07T11:48:45.676Z,31.21
2022-09-07T11:51:32.400Z,31.20
2022-09-07T11:54:27.122Z,31.17
2022-09-07T11:57:16.914Z,30.98
2022-09-07T12:00:19.559Z,30.80
2022-09-07T12:03:04.883Z,30.67
2022-09-07T12:06:00.451Z,30.61
2022-09-07T12:08:35.405Z,30.62
2022-09-07T12:11:23.592Z,30.63
2022-09-07T12:14:33.502Z,30.73
2022-09-07T12:17:23.734Z,30.83
2022-09-07T12:20:19.634Z,30.90
2022-09-07T12:23:04.769Z,31.07
2022-09-07T12:25:33.795Z,31.24
2022-09-07T12:28:01.480Z,31.36
2022-09-07T12:30:30.071Z,31.41
2022-09-07T12:32:58.026Z,31.41
2022-09-07T12:35:37.101Z,31.48
2022-09-07T12:38:58.569Z,31.52
2022-09-07T12:41:39.625Z,31.57
2022-09-07T12:44:15.789Z,31.64
2022-09-07T12:46:46.781Z,31.68
2022-09-07T12:49:32.527Z,31.77
2022-09-07T12:52:23.734Z,31.90
2022-09-07T12:55:28.966Z,31.98
2022-09-07T12:58:17.638Z,31.98
2022-09-07T13:01:13.266Z,31.99
2022-09-07T13:03:51.584Z,31.97
2022-09-07T13:09:26.182Z,31.96
2022-09-07T13:11:52.959Z,32.05
2022-09-07T13:14:24.374Z,32.11
2022-09-07T13:17:29.907Z,32.20
2022-09-07T13:19:56.495Z,32.29
2022-09-07T13:22:29.028Z,32.31
2022-09-07T13:24:59.478Z,32.30
2022-09-07T13:27:47.690Z,32.34
2022-09-07T13:30:17.131Z,32.47
2022-09-07T13:35:31.868Z,32.50
2022-09-07T13:38:03.614Z,32.52
2022-09-07T13:40:45.184Z,32.57
2022-09-07T13:43:31.984Z,32.60
2022-09-07T13:46:07.852Z,32.52
2022-09-07T13:48:35.693Z,32.42
2022-09-07T13:51:14.044Z,32.27
2022-09-07T13:53:55.998Z,32.16
2022-09-07T13:56:56.420Z,32.07
2022-09-07T13:59:25.628Z,32.09
2022-09-07T14:01:52.204Z,31.99
2022-09-07T14:04:25.981Z,32.00
2022-09-07T14:07:06.974Z,32.10
2022-09-07T14:09:34.867Z,32.27
2022-09-07T14:12:01.731Z,32.31
2022-09-07T14:14:33.009Z,32.32
2022-09-07T14:16:59.863Z,32.37
2022-09-07T14:19:42.842Z,32.38
2022-09-07T14:22:17.401Z,32.43
2022-09-07T14:25:04.867Z,32.51
2022-09-07T14:27:42.620Z,32.53
2022-09-07T14:30:29.927Z,32.47
2022-09-07T14:33:23.393Z,32.38
2022-09-07T14:35:50.044Z,32.33
2022-09-07T14:41:13.350Z,32.31
2022-09-07T14:44:00.041Z,32.32
2022-09-07T14:46:29.386Z,32.28
2022-09-07T14:48:58.355Z,32.23
2022-09-07T14:51:36.611Z,32.17
2022-09-07T14:54:07.119Z,32.13
2022-09-07T14:56:40.118Z,32.12
2022-09-07T14:59:27.178Z,32.09
2022-09-07T15:02:14.897Z,32.06
2022-09-07T15:04:41.811Z,32.03
2022-09-07T15:07:27.433Z,32.02
2022-09-07T15:09:54.689Z,31.99
2022-09-07T15:12:37.954Z,31.88
2022-09-07T15:15:11.032Z,31.82
2022-09-07T15:17:45.013Z,31.78
2022-09-07T15:20:34.958Z,31.74
2022-09-07T15:23:08.839Z,31.69
2022-09-07T15:25:36.292Z,31.61
2022-09-07T15:28:02.984Z,31.49
2022-09-07T15:30:29.491Z,31.36
2022-09-07T15:32:57.362Z,31.21
2022-09-07T15:35:24.527Z,31.11
2022-09-07T15:38:59.335Z,31.04
2022-09-07T15:41:10.611Z,31.02
2022-09-07T15:43:31.951Z,31.04
2022-09-07T15:45:58.679Z,31.04
2022-09-07T15:48:25.992Z,30.99
2022-09-07T15:51:01.463Z,30.90
2022-09-07T15:56:19.866Z,30.80
2022-09-07T15:58:50.843Z,30.77
2022-09-07T16:04:06.134Z,30.54
2022-09-07T16:06:35.785Z,30.41
2022-09-07T16:09:06.036Z,30.32
2022-09-07T16:11:35.178Z,30.24
2022-09-07T16:14:03.830Z,30.14
2022-09-07T16:19:20.556Z,30.00
2022-09-07T16:21:47.757Z,29.98
2022-09-07T16:24:14.902Z,29.94
2022-09-07T16:26:41.341Z,29.86
2022-09-07T16:29:07.925Z,29.82
2022-09-07T16:31:35.385Z,29.81
2022-09-07T16:34:05.818Z,29.79
2022-09-07T16:36:32.361Z,29.78
2022-09-07T16:39:00.528Z,29.70
2022-09-07T16:41:31.251Z,29.67
2022-09-07T16:44:00.590Z,29.63
2022-09-07T16:46:34.823Z,29.62
2022-09-07T16:49:01.810Z,29.60
2022-09-07T16:51:28.729Z,29.57
2022-09-07T16:53:59.785Z,29.57
2022-09-07T16:56:28.885Z,29.58
2022-09-07T16:58:58.617Z,29.59
2022-09-07T17:01:31.272Z,29.55
2022-09-07T17:04:06.848Z,29.54
2022-09-07T17:06:37.095Z,29.51
2022-09-07T17:09:03.865Z,29.45
2022-09-07T17:11:35.785Z,29.38
2022-09-07T17:14:06.864Z,29.32
2022-09-07T17:16:35.898Z,29.30
2022-09-07T17:21:51.750Z,29.24
2022-09-07T17:24:19.783Z,29.22
2022-09-07T17:26:46.525Z,29.16
2022-09-07T17:29:13.496Z,29.11
2022-09-07T17:34:31.001Z,29.04
2022-09-07T17:36:57.761Z,29.03
2022-09-07T17:39:24.209Z,29.02
2022-09-07T17:41:54.464Z,29.03
2022-09-07T17:44:24.314Z,29.02
2022-09-07T17:46:51.371Z,28.98
2022-09-07T17:49:18.073Z,28.94
2022-09-07T17:51:45.471Z,28.88
2022-09-07T17:54:14.915Z,28.83
2022-09-07T17:56:42.643Z,28.78
2022-09-07T18:01:56.722Z,28.65
2022-09-07T18:04:24.047Z,28.59
2022-09-07T18:06:51.318Z,28.48
2022-09-07T18:09:19.631Z,28.41
2022-09-07T18:11:48.198Z,28.33
2022-09-07T18:14:18.621Z,28.22
2022-09-07T18:16:46.509Z,28.11
2022-09-07T18:19:13.705Z,28.03
2022-09-07T18:21:42.586Z,27.96
2022-09-07T18:24:17.372Z,27.89
2022-09-07T18:26:49.663Z,27.78
2022-09-07T18:29:28.184Z,27.66
2022-09-07T18:31:56.213Z,27.52
2022-09-07T18:34:25.025Z,27.41
2022-09-07T18:36:51.650Z,27.33
2022-09-07T18:39:18.224Z,27.22
2022-09-07T18:41:44.724Z,27.14
2022-09-07T18:46:58.799Z,26.99
2022-09-07T18:49:26.367Z,26.94
2022-09-07T18:54:41.369Z,26.84
2022-09-07T18:57:08.194Z,26.80
2022-09-07T18:59:34.714Z,26.77
2022-09-07T19:02:04.772Z,26.73
2022-09-07T19:07:20.693Z,26.64
2022-09-07T19:09:48.198Z,26.58
2022-09-07T19:12:14.988Z,26.51
2022-09-07T19:14:45.648Z,26.45
2022-09-07T19:17:12.081Z,26.39
2022-09-07T19:19:39.660Z,26.32
2022-09-07T19:22:06.127Z,26.26
2022-09-07T19:24:37.435Z,26.20
2022-09-07T19:27:03.977Z,26.16
2022-09-07T19:29:30.466Z,26.10
2022-09-07T19:32:06.663Z,26.00
2022-09-07T19:34:37.295Z,25.88
2022-09-07T19:37:06.650Z,25.81
2022-09-07T19:39:33.626Z,25.73
2022-09-07T19:42:00.548Z,25.65
2022-09-07T19:44:31.605Z,25.58
2022-09-07T19:46:58.188Z,25.54
2022-09-07T19:49:24.688Z,25.49
2022-09-07T19:51:51.924Z,25.44
2022-09-07T19:54:22.902Z,25.42
2022-09-07T19:56:49.455Z,25.40
2022-09-07T19:59:16.742Z,25.37
2022-09-07T20:01:46.175Z,25.33
2022-09-07T20:04:23.348Z,25.29
2022-09-07T20:06:51.599Z,25.23
2022-09-07T20:09:19.842Z,25.17
2022-09-07T20:11:47.785Z,25.13
2022-09-07T20:14:16.667Z,25.07
2022-09-07T20:16:43.660Z,25.02
2022-09-07T20:19:13.571Z,25.01
2022-09-07T20:21:40.140Z,24.97
2022-09-07T20:24:14.584Z,24.91
2022-09-07T20:26:41.206Z,24.86
2022-09-07T20:29:27.206Z,24.80
2022-09-07T20:31:55.781Z,24.75
2022-09-07T20:34:22.305Z,24.71
2022-09-07T20:36:49.886Z,24.67
2022-09-07T20:39:16.998Z,24.64
2022-09-07T20:41:44.339Z,24.62
2022-09-07T20:44:15.331Z,24.60
2022-09-07T20:46:42.009Z,24.57
2022-09-07T20:49:09.040Z,24.52
2022-09-07T20:51:35.485Z,24.49
2022-09-07T20:54:03.809Z,24.45
2022-09-07T20:56:31.009Z,24.44
2022-09-07T20:59:02.669Z,24.40
2022-09-07T21:01:30.832Z,24.36
2022-09-07T21:04:06.484Z,24.34
2022-09-07T21:06:33.202Z,24.33
2022-09-07T21:08:59.899Z,24.30
2022-09-07T21:11:29.404Z,24.28
2022-09-07T21:14:10.242Z,24.29
2022-09-07T21:16:37.005Z,24.28
2022-09-07T21:19:06.404Z,24.24
2022-09-07T21:21:39.287Z,24.21
2022-09-07T21:24:18.991Z,24.17
2022-09-07T21:26:46.095Z,24.15
2022-09-07T21:29:17.283Z,24.11
2022-09-07T21:31:44.081Z,24.08
2022-09-07T21:34:12.242Z,24.06
2022-09-07T21:36:38.686Z,24.04
2022-09-07T21:39:05.367Z,24.02
2022-09-07T21:41:31.822Z,24.03
2022-09-07T21:44:02.891Z,24.03
2022-09-07T21:46:31.407Z,24.03
2022-09-07T21:48:59.305Z,24.00
2022-09-07T21:51:26.928Z,24.01
2022-09-07T21:54:00.030Z,24.00
2022-09-07T21:56:31.231Z,24.00
2022-09-07T21:58:59.902Z,23.98
2022-09-07T22:01:27.937Z,23.97
2022-09-07T22:03:59.318Z,23.95
2022-09-07T22:06:27.576Z,23.92
2022-09-07T22:08:54.504Z,23.90
2022-09-07T22:11:23.205Z,23.88
2022-09-07T22:13:54.444Z,23.87
2022-09-07T22:16:20.964Z,23.86
2022-09-07T22:18:47.761Z,23.85
2022-09-07T22:21:21.166Z,23.83
2022-09-07T22:23:52.405Z,23.83
2022-09-07T22:26:20.844Z,23.82
2022-09-07T22:28:47.467Z,23.82
2022-09-07T22:31:17.219Z,23.82
2022-09-07T22:33:46.562Z,23.80
2022-09-07T22:36:15.076Z,23.80
2022-09-07T22:38:43.495Z,23.80
2022-09-07T22:41:31.671Z,23.76
2022-09-07T22:44:00.398Z,23.76
2022-09-07T22:46:29.799Z,23.75
2022-09-07T22:48:59.398Z,23.74
2022-09-07T22:51:26.906Z,23.75
2022-09-07T22:53:57.823Z,23.75
2022-09-07T22:56:27.449Z,23.74
2022-09-07T22:59:03.321Z,23.74
2022-09-07T23:01:31.145Z,23.73
2022-09-07T23:03:59.334Z,23.72
2022-09-07T23:06:30.824Z,23.72
2022-09-07T23:08:59.366Z,23.74
2022-09-07T23:11:26.612Z,23.75
2022-09-07T23:13:57.675Z,23.79
2022-09-07T23:16:25.884Z,23.82
2022-09-07T23:18:52.938Z,23.87
2022-09-07T23:21:19.933Z,23.89
2022-09-07T23:23:56.773Z,23.90
2022-09-07T23:26:24.635Z,23.92
2022-09-07T23:28:59.397Z,23.93
2022-09-07T23:31:27.881Z,23.96
2022-09-07T23:33:59.623Z,23.96
2022-09-07T23:36:26.667Z,23.95
2022-09-07T23:38:57.826Z,23.95
2022-09-07T23:41:25.030Z,23.93
2022-09-07T23:43:56.926Z,23.88
2022-09-07T23:46:23.860Z,23.82
2022-09-07T23:48:50.625Z,23.72
2022-09-07T23:51:22.870Z,23.58
2022-09-07T23:53:50.395Z,23.49
2022-09-07T23:56:16.842Z,23.34
2022-09-07T23:58:43.390Z,23.24
